sensor_id;sensor_type;location;lat;lon;timestamp;pressure;altitude;pressure_sealevel;temperature;humidity
55590;BME280;41452;42.780;23.116;2023-02-20T00:00:38;94673.31;;;7.77;75.83
55590;BME280;41452;42.780;23.116;2023-02-20T00:03:04;94676.31;;;7.80;75.39
55590;BME280;41452;42.780;23.116;2023-02-20T00:05:30;94694.16;;;7.97;75.13
55590;BME280;41452;42.780;23.116;2023-02-20T00:07:55;94693.38;;;7.96;75.33
55590;BME280;41452;42.780;23.116;2023-02-20T00:10:21;94667.28;;;7.76;75.92
55590;BME280;41452;42.780;23.116;2023-02-20T00:12:49;94685.16;;;7.86;75.69
55590;BME280;41452;42.780;23.116;2023-02-20T00:17:48;94690.78;;;7.90;76.26
55590;BME280;41452;42.780;23.116;2023-02-20T00:20:15;94685.34;;;7.91;76.33
55590;BME280;41452;42.780;23.116;2023-02-20T00:22:41;94682.13;;;7.89;76.40
55590;BME280;41452;42.780;23.116;2023-02-20T00:25:07;94680.91;;;7.92;76.71
55590;BME280;41452;42.780;23.116;2023-02-20T00:27:32;94672.06;;;7.93;76.49
55590;BME280;41452;42.780;23.116;2023-02-20T00:29:57;94669.06;;;7.89;76.43
55590;BME280;41452;42.780;23.116;2023-02-20T00:32:23;94675.88;;;7.90;76.62
55590;BME280;41452;42.780;23.116;2023-02-20T00:34:48;94664.81;;;7.88;77.04
55590;BME280;41452;42.780;23.116;2023-02-20T00:37:13;94664.03;;;7.81;77.14
55590;BME280;41452;42.780;23.116;2023-02-20T00:39:39;94699.44;;;7.77;77.68
55590;BME280;41452;42.780;23.116;2023-02-20T00:42:04;94704.28;;;7.80;77.76
55590;BME280;41452;42.780;23.116;2023-02-20T00:44:30;94705.66;;;7.76;77.72
55590;BME280;41452;42.780;23.116;2023-02-20T00:46:55;94706.91;;;7.67;78.36
55590;BME280;41452;42.780;23.116;2023-02-20T00:49:20;94714.53;;;7.68;78.45
55590;BME280;41452;42.780;23.116;2023-02-20T00:51:46;94712.72;;;7.69;77.88
55590;BME280;41452;42.780;23.116;2023-02-20T00:54:12;94723.78;;;7.71;78.11
55590;BME280;41452;42.780;23.116;2023-02-20T00:56:37;94726.41;;;7.64;78.36
55590;BME280;41452;42.780;23.116;2023-02-20T00:59:03;94703.91;;;7.43;78.80
55590;BME280;41452;42.780;23.116;2023-02-20T01:01:28;94722.19;;;7.56;79.54
55590;BME280;41452;42.780;23.116;2023-02-20T01:03:54;94692.06;;;7.34;79.91
55590;BME280;41452;42.780;23.116;2023-02-20T01:06:19;94724.19;;;7.54;79.86
55590;BME280;41452;42.780;23.116;2023-02-20T01:08:44;94729.22;;;7.56;79.80
55590;BME280;41452;42.780;23.116;2023-02-20T01:11:10;94692.66;;;7.36;80.06
55590;BME280;41452;42.780;23.116;2023-02-20T01:13:35;94732.84;;;7.61;80.14
55590;BME280;41452;42.780;23.116;2023-02-20T01:16:01;94713.97;;;7.46;79.88
55590;BME280;41452;42.780;23.116;2023-02-20T01:18:26;94743.69;;;7.72;80.14
55590;BME280;41452;42.780;23.116;2023-02-20T01:20:52;94752.34;;;7.72;80.11
55590;BME280;41452;42.780;23.116;2023-02-20T01:23:17;94752.72;;;7.76;79.93
55590;BME280;41452;42.780;23.116;2023-02-20T01:25:43;94755.16;;;7.77;80.11
55590;BME280;41452;42.780;23.116;2023-02-20T01:28:08;94756.16;;;7.76;80.93
55590;BME280;41452;42.780;23.116;2023-02-20T01:30:34;94704.28;;;7.40;81.26
55590;BME280;41452;42.780;23.116;2023-02-20T01:32:59;94750.53;;;7.73;81.64
55590;BME280;41452;42.780;23.116;2023-02-20T01:35:24;94751.34;;;7.73;82.03
55590;BME280;41452;42.780;23.116;2023-02-20T01:37:55;94740.88;;;7.67;82.66
55590;BME280;41452;42.780;23.116;2023-02-20T01:40:21;94742.50;;;7.61;83.71
55590;BME280;41452;42.780;23.116;2023-02-20T01:42:48;94754.13;;;7.58;84.64
55590;BME280;41452;42.780;23.116;2023-02-20T01:47:53;94767.44;;;7.50;86.78
55590;BME280;41452;42.780;23.116;2023-02-20T01:50:24;94749.09;;;7.37;88.82
55590;BME280;41452;42.780;23.116;2023-02-20T01:52:53;94748.50;;;7.28;89.87
55590;BME280;41452;42.780;23.116;2023-02-20T01:55:22;94740.28;;;7.18;90.71
55590;BME280;41452;42.780;23.116;2023-02-20T01:58:02;94733.22;;;7.12;90.95
55590;BME280;41452;42.780;23.116;2023-02-20T02:00:31;94759.94;;;7.07;90.75
55590;BME280;41452;42.780;23.116;2023-02-20T02:03:04;94758.50;;;7.04;90.73
55590;BME280;41452;42.780;23.116;2023-02-20T02:05:32;94751.28;;;6.93;91.07
55590;BME280;41452;42.780;23.116;2023-02-20T02:07:58;94722.47;;;6.73;90.79
55590;BME280;41452;42.780;23.116;2023-02-20T02:10:29;94739.59;;;6.82;91.31
55590;BME280;41452;42.780;23.116;2023-02-20T02:12:55;94743.56;;;6.78;91.00
55590;BME280;41452;42.780;23.116;2023-02-20T02:15:21;94742.75;;;6.71;91.24
55590;BME280;41452;42.780;23.116;2023-02-20T02:23:31;94756.75;;;6.57;91.46
55590;BME280;41452;42.780;23.116;2023-02-20T02:40:13;94772.09;;;6.32;92.85
55590;BME280;41452;42.780;23.116;2023-02-20T02:47:45;94780.31;;;6.28;92.24
55590;BME280;41452;42.780;23.116;2023-02-20T02:50:24;94780.06;;;6.23;93.41
55590;BME280;41452;42.780;23.116;2023-02-20T02:52:51;94779.81;;;6.12;93.80
55590;BME280;41452;42.780;23.116;2023-02-20T02:55:26;94787.88;;;6.17;93.97
55590;BME280;41452;42.780;23.116;2023-02-20T02:57:52;94789.25;;;6.13;93.96
55590;BME280;41452;42.780;23.116;2023-02-20T03:00:21;94799.06;;;6.11;93.16
55590;BME280;41452;42.780;23.116;2023-02-20T03:02:49;94802.03;;;6.07;93.41
55590;BME280;41452;42.780;23.116;2023-02-20T03:05:19;94768.59;;;5.83;93.38
55590;BME280;41452;42.780;23.116;2023-02-20T03:07:48;94793.78;;;5.97;93.48
55590;BME280;41452;42.780;23.116;2023-02-20T03:10:19;94785.31;;;5.95;93.73
55590;BME280;41452;42.780;23.116;2023-02-20T03:12:58;94763.03;;;5.64;94.15
55590;BME280;41452;42.780;23.116;2023-02-20T03:15:35;94802.31;;;5.91;94.03
55590;BME280;41452;42.780;23.116;2023-02-20T03:20:49;94788.19;;;5.79;93.81
55590;BME280;41452;42.780;23.116;2023-02-20T03:23:25;94816.13;;;5.85;94.29
55590;BME280;41452;42.780;23.116;2023-02-20T03:25:58;94834.78;;;5.88;94.92
55590;BME280;41452;42.780;23.116;2023-02-20T03:28:35;94837.22;;;5.90;94.73
55590;BME280;41452;42.780;23.116;2023-02-20T03:31:10;94843.03;;;5.92;93.94
55590;BME280;41452;42.780;23.116;2023-02-20T03:33:39;94822.63;;;5.96;93.62
55590;BME280;41452;42.780;23.116;2023-02-20T03:36:39;94810.13;;;5.91;93.25
55590;BME280;41452;42.780;23.116;2023-02-20T03:39:32;94817.16;;;5.90;93.13
55590;BME280;41452;42.780;23.116;2023-02-20T03:42:20;94836.19;;;5.91;92.77
55590;BME280;41452;42.780;23.116;2023-02-20T03:45:07;94846.44;;;5.93;92.82
55590;BME280;41452;42.780;23.116;2023-02-20T03:47:36;94845.91;;;5.97;93.12
55590;BME280;41452;42.780;23.116;2023-02-20T03:50:04;94844.34;;;6.03;92.21
55590;BME280;41452;42.780;23.116;2023-02-20T03:52:49;94847.00;;;6.09;93.40
55590;BME280;41452;42.780;23.116;2023-02-20T03:55:15;94835.50;;;6.04;92.95
55590;BME280;41452;42.780;23.116;2023-02-20T03:57:49;94865.72;;;6.20;93.47
55590;BME280;41452;42.780;23.116;2023-02-20T04:00:20;94863.34;;;6.25;93.63
55590;BME280;41452;42.780;23.116;2023-02-20T04:02:49;94865.41;;;6.30;92.93
55590;BME280;41452;42.780;23.116;2023-02-20T04:05:25;94867.00;;;6.31;93.17
55590;BME280;41452;42.780;23.116;2023-02-20T04:08:16;94853.31;;;6.22;93.05
55590;BME280;41452;42.780;23.116;2023-02-20T04:10:47;94863.81;;;6.35;92.88
55590;BME280;41452;42.780;23.116;2023-02-20T04:13:15;94874.25;;;6.35;92.17
55590;BME280;41452;42.780;23.116;2023-02-20T04:15:43;94868.19;;;6.28;91.67
55590;BME280;41452;42.780;23.116;2023-02-20T04:18:11;94853.03;;;6.10;91.72
55590;BME280;41452;42.780;23.116;2023-02-20T04:20:37;94855.28;;;6.20;91.73
55590;BME280;41452;42.780;23.116;2023-02-20T04:23:12;94859.28;;;6.16;91.39
55590;BME280;41452;42.780;23.116;2023-02-20T04:25:45;94847.19;;;6.08;91.62
55590;BME280;41452;42.780;23.116;2023-02-20T04:28:13;94841.41;;;5.91;91.87
55590;BME280;41452;42.780;23.116;2023-02-20T04:30:39;94773.81;;;5.33;91.99
55590;BME280;41452;42.780;23.116;2023-02-20T04:33:04;94848.31;;;5.77;92.02
55590;BME280;41452;42.780;23.116;2023-02-20T04:35:30;94857.06;;;5.69;92.15
55590;BME280;41452;42.780;23.116;2023-02-20T04:37:55;94868.88;;;5.65;92.01
55590;BME280;41452;42.780;23.116;2023-02-20T04:40:23;94864.66;;;5.64;91.47
55590;BME280;41452;42.780;23.116;2023-02-20T04:42:48;94855.09;;;5.50;90.75
55590;BME280;41452;42.780;23.116;2023-02-20T04:45:14;94880.41;;;5.56;90.25
55590;BME280;41452;42.780;23.116;2023-02-20T04:47:42;94868.00;;;5.58;89.30
55590;BME280;41452;42.780;23.116;2023-02-20T04:50:18;94866.63;;;5.41;88.51
55590;BME280;41452;42.780;23.116;2023-02-20T04:52:44;94877.84;;;5.41;88.34
55590;BME280;41452;42.780;23.116;2023-02-20T04:55:10;94870.59;;;5.37;86.25
55590;BME280;41452;42.780;23.116;2023-02-20T04:57:35;94863.69;;;5.29;85.91
55590;BME280;41452;42.780;23.116;2023-02-20T05:00:00;94859.31;;;5.29;84.61
55590;BME280;41452;42.780;23.116;2023-02-20T05:02:26;94863.88;;;5.27;84.29
55590;BME280;41452;42.780;23.116;2023-02-20T05:04:52;94870.09;;;5.26;83.91
55590;BME280;41452;42.780;23.116;2023-02-20T05:07:17;94862.91;;;5.28;83.93
55590;BME280;41452;42.780;23.116;2023-02-20T05:09:43;94863.63;;;5.22;83.94
55590;BME280;41452;42.780;23.116;2023-02-20T05:12:08;94855.44;;;5.25;83.56
55590;BME280;41452;42.780;23.116;2023-02-20T05:14:34;94857.44;;;5.23;83.69
55590;BME280;41452;42.780;23.116;2023-02-20T05:16:59;94868.38;;;5.19;84.37
55590;BME280;41452;42.780;23.116;2023-02-20T05:19:25;94875.22;;;5.20;84.09
55590;BME280;41452;42.780;23.116;2023-02-20T05:21:50;94874.03;;;5.22;84.35
55590;BME280;41452;42.780;23.116;2023-02-20T05:24:34;94885.03;;;5.18;85.12
55590;BME280;41452;42.780;23.116;2023-02-20T05:26:59;94889.44;;;5.17;85.45
55590;BME280;41452;42.780;23.116;2023-02-20T05:29:25;94878.75;;;5.12;86.49
55590;BME280;41452;42.780;23.116;2023-02-20T05:31:50;94860.81;;;5.02;86.70
55590;BME280;41452;42.780;23.116;2023-02-20T05:34:16;94881.88;;;5.07;87.41
55590;BME280;41452;42.780;23.116;2023-02-20T05:36:41;94874.63;;;5.03;87.83
55590;BME280;41452;42.780;23.116;2023-02-20T05:39:06;94891.03;;;5.18;87.70
55590;BME280;41452;42.780;23.116;2023-02-20T05:41:32;94882.69;;;5.08;87.47
55590;BME280;41452;42.780;23.116;2023-02-20T05:43:58;94904.94;;;5.25;87.55
55590;BME280;41452;42.780;23.116;2023-02-20T05:46:27;94918.38;;;5.29;87.58
55590;BME280;41452;42.780;23.116;2023-02-20T05:48:53;94923.41;;;5.30;87.49
55590;BME280;41452;42.780;23.116;2023-02-20T05:51:24;94917.84;;;5.33;87.12
55590;BME280;41452;42.780;23.116;2023-02-20T05:53:50;94922.13;;;5.41;87.20
55590;BME280;41452;42.780;23.116;2023-02-20T05:56:15;94926.81;;;5.46;86.65
55590;BME280;41452;42.780;23.116;2023-02-20T05:58:42;94918.63;;;5.49;85.67
55590;BME280;41452;42.780;23.116;2023-02-20T06:01:08;94918.06;;;5.53;84.87
55590;BME280;41452;42.780;23.116;2023-02-20T06:03:33;94914.84;;;5.51;83.63
55590;BME280;41452;42.780;23.116;2023-02-20T06:05:59;94910.56;;;5.44;83.56
55590;BME280;41452;42.780;23.116;2023-02-20T06:08:24;94922.81;;;5.50;83.45
55590;BME280;41452;42.780;23.116;2023-02-20T06:10:50;94928.28;;;5.55;83.05
55590;BME280;41452;42.780;23.116;2023-02-20T06:13:18;94930.53;;;5.58;83.01
55590;BME280;41452;42.780;23.116;2023-02-20T06:15:43;94937.88;;;5.69;82.87
55590;BME280;41452;42.780;23.116;2023-02-20T06:18:09;94937.13;;;5.76;81.97
55590;BME280;41452;42.780;23.116;2023-02-20T06:20:34;94949.22;;;5.83;81.66
55590;BME280;41452;42.780;23.116;2023-02-20T06:22:59;94951.47;;;5.86;81.22
55590;BME280;41452;42.780;23.116;2023-02-20T06:25:25;94965.94;;;5.89;81.03
55590;BME280;41452;42.780;23.116;2023-02-20T06:27:50;94972.38;;;5.93;81.06
55590;BME280;41452;42.780;23.116;2023-02-20T06:30:16;94959.72;;;5.90;80.05
55590;BME280;41452;42.780;23.116;2023-02-20T06:32:41;94974.28;;;5.99;80.42
55590;BME280;41452;42.780;23.116;2023-02-20T06:35:07;94976.91;;;5.99;79.73
55590;BME280;41452;42.780;23.116;2023-02-20T06:37:32;94981.50;;;5.97;79.59
55590;BME280;41452;42.780;23.116;2023-02-20T06:39:58;94978.72;;;5.84;79.21
55590;BME280;41452;42.780;23.116;2023-02-20T06:42:24;94999.81;;;5.89;79.35
55590;BME280;41452;42.780;23.116;2023-02-20T06:44:49;95001.53;;;5.82;79.35
55590;BME280;41452;42.780;23.116;2023-02-20T06:47:14;94980.00;;;5.73;78.54
55590;BME280;41452;42.780;23.116;2023-02-20T06:49:40;94950.88;;;5.48;78.47
55590;BME280;41452;42.780;23.116;2023-02-20T06:52:06;94970.09;;;5.47;79.64
55590;BME280;41452;42.780;23.116;2023-02-20T06:54:32;95003.09;;;5.76;78.53
55590;BME280;41452;42.780;23.116;2023-02-20T06:56:59;95013.34;;;5.78;78.17
55590;BME280;41452;42.780;23.116;2023-02-20T06:59:24;94983.09;;;5.62;77.16
55590;BME280;41452;42.780;23.116;2023-02-20T07:01:50;95013.22;;;5.86;77.45
55590;BME280;41452;42.780;23.116;2023-02-20T07:04:22;95023.28;;;5.89;77.02
55590;BME280;41452;42.780;23.116;2023-02-20T07:06:48;95029.72;;;5.93;76.03
55590;BME280;41452;42.780;23.116;2023-02-20T07:09:14;95033.16;;;5.94;75.55
55590;BME280;41452;42.780;23.116;2023-02-20T07:11:40;95028.66;;;5.87;74.84
55590;BME280;41452;42.780;23.116;2023-02-20T07:14:06;95025.16;;;5.95;74.55
55590;BME280;41452;42.780;23.116;2023-02-20T07:16:31;95019.69;;;5.90;73.52
55590;BME280;41452;42.780;23.116;2023-02-20T07:18:57;95040.88;;;6.02;72.90
55590;BME280;41452;42.780;23.116;2023-02-20T07:21:23;95049.31;;;6.04;73.32
55590;BME280;41452;42.780;23.116;2023-02-20T07:23:48;95038.09;;;6.03;72.85
55590;BME280;41452;42.780;23.116;2023-02-20T07:26:25;95045.66;;;5.98;71.44
55590;BME280;41452;42.780;23.116;2023-02-20T07:28:53;95039.66;;;5.98;71.55
55590;BME280;41452;42.780;23.116;2023-02-20T07:31:18;95032.63;;;5.98;71.97
55590;BME280;41452;42.780;23.116;2023-02-20T07:33:44;95040.53;;;6.05;70.54
55590;BME280;41452;42.780;23.116;2023-02-20T07:36:13;95049.75;;;6.07;69.56
55590;BME280;41452;42.780;23.116;2023-02-20T07:38:39;95060.84;;;6.09;70.52
55590;BME280;41452;42.780;23.116;2023-02-20T07:41:05;95057.72;;;5.99;69.28
55590;BME280;41452;42.780;23.116;2023-02-20T07:43:31;95058.88;;;5.97;68.28
55590;BME280;41452;42.780;23.116;2023-02-20T07:45:56;95075.16;;;5.99;68.77
55590;BME280;41452;42.780;23.116;2023-02-20T07:48:22;95070.13;;;5.97;68.28
55590;BME280;41452;42.780;23.116;2023-02-20T07:50:47;95065.22;;;6.09;67.95
55590;BME280;41452;42.780;23.116;2023-02-20T07:53:14;95067.38;;;6.20;67.02
55590;BME280;41452;42.780;23.116;2023-02-20T07:55:40;95061.84;;;6.30;66.49
55590;BME280;41452;42.780;23.116;2023-02-20T07:58:05;95048.88;;;6.37;66.99
55590;BME280;41452;42.780;23.116;2023-02-20T08:00:31;95056.69;;;6.58;65.84
55590;BME280;41452;42.780;23.116;2023-02-20T08:02:56;95068.06;;;6.72;65.16
55590;BME280;41452;42.780;23.116;2023-02-20T08:05:23;95073.16;;;6.80;65.07
55590;BME280;41452;42.780;23.116;2023-02-20T08:07:49;95063.41;;;6.96;64.90
55590;BME280;41452;42.780;23.116;2023-02-20T08:10:17;95070.81;;;6.92;63.42
55590;BME280;41452;42.780;23.116;2023-02-20T08:12:44;95063.03;;;6.99;63.66
55590;BME280;41452;42.780;23.116;2023-02-20T08:15:09;95078.34;;;7.02;62.86
55590;BME280;41452;42.780;23.116;2023-02-20T08:17:39;95081.19;;;7.07;63.55
55590;BME280;41452;42.780;23.116;2023-02-20T08:20:06;95069.19;;;7.19;62.50
55590;BME280;41452;42.780;23.116;2023-02-20T08:22:33;95069.59;;;7.16;62.60
55590;BME280;41452;42.780;23.116;2023-02-20T08:24:58;95059.50;;;7.13;62.77
55590;BME280;41452;42.780;23.116;2023-02-20T08:27:24;95075.06;;;7.21;62.30
55590;BME280;41452;42.780;23.116;2023-02-20T08:29:49;95072.81;;;7.18;62.61
55590;BME280;41452;42.780;23.116;2023-02-20T08:32:15;95072.03;;;7.24;61.68
55590;BME280;41452;42.780;23.116;2023-02-20T08:34:40;95080.47;;;7.20;62.65
55590;BME280;41452;42.780;23.116;2023-02-20T08:37:05;95056.72;;;7.15;62.29
55590;BME280;41452;42.780;23.116;2023-02-20T08:39:31;95044.81;;;7.12;61.73
55590;BME280;41452;42.780;23.116;2023-02-20T08:41:56;95021.13;;;7.07;62.83
55590;BME280;41452;42.780;23.116;2023-02-20T08:44:22;95054.25;;;7.41;61.18
55590;BME280;41452;42.780;23.116;2023-02-20T08:46:50;95051.97;;;7.32;62.09
55590;BME280;41452;42.780;23.116;2023-02-20T08:49:17;95057.72;;;7.49;62.14
55590;BME280;41452;42.780;23.116;2023-02-20T08:51:47;95064.44;;;7.65;60.37
55590;BME280;41452;42.780;23.116;2023-02-20T08:54:14;95068.69;;;7.72;60.71
55590;BME280;41452;42.780;23.116;2023-02-20T08:56:41;95083.19;;;7.75;59.80
55590;BME280;41452;42.780;23.116;2023-02-20T08:59:06;95057.44;;;7.72;58.94
55590;BME280;41452;42.780;23.116;2023-02-20T09:01:32;95037.28;;;7.66;59.46
55590;BME280;41452;42.780;23.116;2023-02-20T09:03:57;95050.47;;;7.92;61.40
55590;BME280;41452;42.780;23.116;2023-02-20T09:06:23;95048.28;;;7.96;60.24
55590;BME280;41452;42.780;23.116;2023-02-20T09:08:50;95062.78;;;8.05;58.91
55590;BME280;41452;42.780;23.116;2023-02-20T09:11:16;95051.09;;;8.08;58.00
55590;BME280;41452;42.780;23.116;2023-02-20T09:13:45;95049.13;;;8.16;59.02
55590;BME280;41452;42.780;23.116;2023-02-20T09:16:16;95020.75;;;8.07;59.11
55590;BME280;41452;42.780;23.116;2023-02-20T09:18:43;95038.69;;;8.36;60.00
55590;BME280;41452;42.780;23.116;2023-02-20T09:21:15;95010.53;;;8.38;60.21
55590;BME280;41452;42.780;23.116;2023-02-20T09:23:40;95044.59;;;8.59;58.96
55590;BME280;41452;42.780;23.116;2023-02-20T09:26:06;95034.31;;;8.57;59.49
55590;BME280;41452;42.780;23.116;2023-02-20T09:28:31;95023.44;;;8.53;58.29
55590;BME280;41452;42.780;23.116;2023-02-20T09:30:57;95039.34;;;8.52;59.02
55590;BME280;41452;42.780;23.116;2023-02-20T09:33:24;95026.00;;;8.40;57.28
55590;BME280;41452;42.780;23.116;2023-02-20T09:35:50;95027.88;;;8.53;58.67
55590;BME280;41452;42.780;23.116;2023-02-20T09:38:16;95029.69;;;8.46;59.36
55590;BME280;41452;42.780;23.116;2023-02-20T09:40:43;95020.63;;;8.48;58.66
55590;BME280;41452;42.780;23.116;2023-02-20T09:43:43;95037.94;;;8.63;56.74
55590;BME280;41452;42.780;23.116;2023-02-20T09:46:19;95033.72;;;8.68;56.47
55590;BME280;41452;42.780;23.116;2023-02-20T09:51:22;95029.69;;;8.66;55.33
55590;BME280;41452;42.780;23.116;2023-02-20T09:56:43;95052.88;;;8.89;55.35
55590;BME280;41452;42.780;23.116;2023-02-20T09:59:20;95034.91;;;8.79;54.23
55590;BME280;41452;42.780;23.116;2023-02-20T10:01:55;95024.25;;;8.81;54.98
55590;BME280;41452;42.780;23.116;2023-02-20T10:04:25;95022.44;;;8.74;53.48
55590;BME280;41452;42.780;23.116;2023-02-20T10:07:01;95022.44;;;8.88;52.52
55590;BME280;41452;42.780;23.116;2023-02-20T10:09:28;95009.53;;;8.93;51.45
55590;BME280;41452;42.780;23.116;2023-02-20T10:12:03;95014.19;;;9.04;52.57
55590;BME280;41452;42.780;23.116;2023-02-20T10:17:42;95019.19;;;9.06;53.39
55590;BME280;41452;42.780;23.116;2023-02-20T10:23:00;95016.94;;;9.23;53.94
55590;BME280;41452;42.780;23.116;2023-02-20T10:25:34;95003.25;;;9.14;52.12
55590;BME280;41452;42.780;23.116;2023-02-20T10:28:07;95027.44;;;9.23;52.94
55590;BME280;41452;42.780;23.116;2023-02-20T10:30:49;95021.34;;;9.36;51.71
55590;BME280;41452;42.780;23.116;2023-02-20T10:33:23;95024.56;;;9.44;52.12
55590;BME280;41452;42.780;23.116;2023-02-20T10:38:37;95024.34;;;9.52;51.74
55590;BME280;41452;42.780;23.116;2023-02-20T10:41:29;95013.47;;;9.42;51.50
55590;BME280;41452;42.780;23.116;2023-02-20T10:44:10;95009.59;;;9.51;52.32
55590;BME280;41452;42.780;23.116;2023-02-20T10:47:06;95000.69;;;9.66;51.17
55590;BME280;41452;42.780;23.116;2023-02-20T10:49:46;95001.84;;;9.77;51.07
55590;BME280;41452;42.780;23.116;2023-02-20T10:52:23;95001.00;;;9.89;50.31
55590;BME280;41452;42.780;23.116;2023-02-20T10:55:14;94997.13;;;9.99;51.51
55590;BME280;41452;42.780;23.116;2023-02-20T10:57:50;94960.97;;;10.01;49.78
55590;BME280;41452;42.780;23.116;2023-02-20T11:00:31;94991.97;;;10.11;48.83
55590;BME280;41452;42.780;23.116;2023-02-20T11:03:06;94984.66;;;10.19;49.58
55590;BME280;41452;42.780;23.116;2023-02-20T11:05:39;94974.66;;;10.03;49.95
55590;BME280;41452;42.780;23.116;2023-02-20T11:08:06;94991.59;;;10.07;50.91
55590;BME280;41452;42.780;23.116;2023-02-20T11:10:31;94988.16;;;10.13;49.76
55590;BME280;41452;42.780;23.116;2023-02-20T11:13:00;94979.00;;;10.22;49.70
55590;BME280;41452;42.780;23.116;2023-02-20T11:15:29;94983.50;;;10.15;48.04
55590;BME280;41452;42.780;23.116;2023-02-20T11:17:57;94984.50;;;10.14;48.34
55590;BME280;41452;42.780;23.116;2023-02-20T11:23:06;94989.91;;;10.19;48.12
55590;BME280;41452;42.780;23.116;2023-02-20T11:25:34;94989.50;;;10.22;48.68
55590;BME280;41452;42.780;23.116;2023-02-20T11:30:38;94995.84;;;10.46;47.81
55590;BME280;41452;42.780;23.116;2023-02-20T11:33:22;94991.97;;;10.49;47.47
55590;BME280;41452;42.780;23.116;2023-02-20T11:35:55;94989.34;;;10.49;48.68
55590;BME280;41452;42.780;23.116;2023-02-20T11:41:00;94989.09;;;10.57;47.23
55590;BME280;41452;42.780;23.116;2023-02-20T11:43:41;94988.59;;;10.42;46.73
55590;BME280;41452;42.780;23.116;2023-02-20T11:46:22;94991.75;;;10.51;46.57
55590;BME280;41452;42.780;23.116;2023-02-20T11:49:07;94999.44;;;10.52;46.83
55590;BME280;41452;42.780;23.116;2023-02-20T11:51:45;94990.59;;;10.46;47.18
55590;BME280;41452;42.780;23.116;2023-02-20T11:54:22;94980.28;;;10.45;46.12
55590;BME280;41452;42.780;23.116;2023-02-20T11:59:42;94988.50;;;10.55;46.18
55590;BME280;41452;42.780;23.116;2023-02-20T12:04:44;94977.84;;;10.50;46.36
55590;BME280;41452;42.780;23.116;2023-02-20T12:07:21;94970.13;;;10.55;45.68
55590;BME280;41452;42.780;23.116;2023-02-20T12:09:52;94968.25;;;10.62;45.94
55590;BME280;41452;42.780;23.116;2023-02-20T12:12:19;94973.50;;;10.62;45.56
55590;BME280;41452;42.780;23.116;2023-02-20T12:14:49;94944.53;;;10.44;46.13
55590;BME280;41452;42.780;23.116;2023-02-20T12:19:53;94981.56;;;10.86;45.50
55590;BME280;41452;42.780;23.116;2023-02-20T12:22:28;94976.94;;;10.81;45.73
55590;BME280;41452;42.780;23.116;2023-02-20T12:25:09;94979.50;;;10.70;45.37
55590;BME280;41452;42.780;23.116;2023-02-20T12:36:30;94965.22;;;10.84;46.59
55590;BME280;41452;42.780;23.116;2023-02-20T12:41:32;94972.53;;;10.82;45.61
55590;BME280;41452;42.780;23.116;2023-02-20T12:47:01;94964.78;;;10.87;46.09
55590;BME280;41452;42.780;23.116;2023-02-20T12:52:25;94948.78;;;10.89;46.27
55590;BME280;41452;42.780;23.116;2023-02-20T13:00:45;94945.78;;;10.67;45.47
55590;BME280;41452;42.780;23.116;2023-02-20T13:05:45;94967.09;;;10.77;46.79
55590;BME280;41452;42.780;23.116;2023-02-20T13:08:15;94959.66;;;10.92;46.40
55590;BME280;41452;42.780;23.116;2023-02-20T13:11:01;94956.97;;;10.80;46.30
55590;BME280;41452;42.780;23.116;2023-02-20T13:16:31;94955.13;;;10.81;47.35
55590;BME280;41452;42.780;23.116;2023-02-20T13:19:05;94956.59;;;10.77;47.36
55590;BME280;41452;42.780;23.116;2023-02-20T13:21:35;94952.50;;;10.81;47.73
55590;BME280;41452;42.780;23.116;2023-02-20T13:24:31;94946.78;;;10.65;46.82
55590;BME280;41452;42.780;23.116;2023-02-20T13:27:01;94955.25;;;10.68;47.01
55590;BME280;41452;42.780;23.116;2023-02-20T13:29:35;94969.16;;;10.75;47.91
55590;BME280;41452;42.780;23.116;2023-02-20T13:32:23;94965.53;;;10.69;47.32
55590;BME280;41452;42.780;23.116;2023-02-20T13:34:49;94977.31;;;10.85;46.99
55590;BME280;41452;42.780;23.116;2023-02-20T13:45:44;94977.22;;;10.48;47.14
55590;BME280;41452;42.780;23.116;2023-02-20T13:53:55;94962.06;;;10.18;48.35
55590;BME280;41452;42.780;23.116;2023-02-20T13:56:27;94977.38;;;10.21;48.17
55590;BME280;41452;42.780;23.116;2023-02-20T13:58:56;94982.72;;;10.08;49.49
55590;BME280;41452;42.780;23.116;2023-02-20T14:01:22;94977.69;;;10.06;48.54
55590;BME280;41452;42.780;23.116;2023-02-20T14:04:02;94974.63;;;10.09;49.38
55590;BME280;41452;42.780;23.116;2023-02-20T14:06:28;94971.81;;;10.11;49.87
55590;BME280;41452;42.780;23.116;2023-02-20T14:09:08;94979.84;;;10.16;49.66
55590;BME280;41452;42.780;23.116;2023-02-20T14:11:36;94949.00;;;9.73;50.28
55590;BME280;41452;42.780;23.116;2023-02-20T14:14:08;94982.78;;;9.95;51.02
55590;BME280;41452;42.780;23.116;2023-02-20T14:16:36;94988.47;;;9.92;50.91
55590;BME280;41452;42.780;23.116;2023-02-20T14:19:14;94993.47;;;10.00;50.89
55590;BME280;41452;42.780;23.116;2023-02-20T14:21:41;94985.00;;;9.98;50.29
55590;BME280;41452;42.780;23.116;2023-02-20T14:26:41;94992.50;;;9.87;51.30
55590;BME280;41452;42.780;23.116;2023-02-20T14:29:26;94986.50;;;9.80;51.64
55590;BME280;41452;42.780;23.116;2023-02-20T14:31:53;94976.44;;;9.77;51.01
55590;BME280;41452;42.780;23.116;2023-02-20T14:34:54;94976.44;;;9.77;51.65
55590;BME280;41452;42.780;23.116;2023-02-20T14:38:06;94975.19;;;9.80;51.39
55590;BME280;41452;42.780;23.116;2023-02-20T14:40:42;94969.97;;;9.73;52.31
55590;BME280;41452;42.780;23.116;2023-02-20T14:45:38;94995.63;;;9.71;51.64
55590;BME280;41452;42.780;23.116;2023-02-20T14:48:03;95000.63;;;9.79;51.79
55590;BME280;41452;42.780;23.116;2023-02-20T14:50:33;95007.47;;;9.80;51.99
55590;BME280;41452;42.780;23.116;2023-02-20T14:53:11;94997.66;;;9.69;51.23
55590;BME280;41452;42.780;23.116;2023-02-20T14:55:37;95016.81;;;9.69;52.07
55590;BME280;41452;42.780;23.116;2023-02-20T14:58:13;95038.63;;;9.63;52.17
55590;BME280;41452;42.780;23.116;2023-02-20T15:00:40;95033.00;;;9.60;52.07